Campo Limpo Paulista, Brazil
Current Conditions -  °F | °C
As of 6:16 AM on Sunday 26 Oct 2014 (Local Time) from SBMT Reporting Station
Haze Haze  
Wind Chill: 68°   Ceiling: 4000
Heat Index: 68°   Visibility: 1.2mi
Dew Point: 63°   Wind: 1mph
Humidity: 83%   Direction: 80°E
Pressure: 29.97"   Gusts: NA
Location:  23.2°S, 46.8°W
Report Text: SBMT 260816Z 08001KT 2000 BR BKN040 20/17 Q1015
Loading
Personal Weather Stations






























Interactive Weather Map
Tropical Storm Tracking
New forecast layout! Learn more

10-Day Weather Forecast

Advertisements
Track Severe Weather on mobile